Time;durP1;ratioP1;P1;durP2;ratioP2;P2;SDS_P1;SDS_P2;PMS_P1;PMS_P2;Temp;Humidity;BMP_temperature;BMP_pressure;BME280_temperature;BME280_humidity;BME280_pressure;Samples;Min_cycle;Max_cycle;Signal;HPM_P1;HPM_P2
2022/08/06 00:00:02;;;;;;;8.15;2.88;;;;;;;11.25;95.43;102322.66;172577;28;1599;-68
2022/08/06 00:00:09;;;;;;;8.60;3.00;;;;;;;11.25;94.78;102325.28;171752;28;1412;-69
2022/08/06 00:00:15;;;;;;;8.07;3.00;;;;;;;11.25;94.96;102321.81;171983;28;939;-69
2022/08/06 00:00:20;;;;;;;8.90;3.10;;;;;;;11.25;94.87;102325.28;171955;28;938;-69
2022/08/06 00:00:25;;;;;;;10.27;3.10;;;;;;;11.24;95.16;102326.19;171910;28;998;-69
2022/08/06 00:00:31;;;;;;;8.77;2.88;;;;;;;11.24;95.40;102325.31;171920;28;1085;-69
2022/08/06 00:00:36;;;;;;;7.82;2.80;;;;;;;11.23;95.52;102324.47;171979;28;840;-69
2022/08/06 00:00:42;;;;;;;7.57;2.70;;;;;;;11.22;95.41;102327.94;171871;28;856;-69
2022/08/06 00:00:47;;;;;;;7.53;2.73;;;;;;;11.20;95.97;102330.59;172508;28;1449;-69
2022/08/06 00:00:52;;;;;;;6.72;2.80;;;;;;;11.20;96.11;102327.97;171890;28;860;-69
2022/08/06 00:00:58;;;;;;;6.87;2.80;;;;;;;11.19;95.97;102328.88;171962;28;852;-69
2022/08/06 00:01:04;;;;;;;7.70;2.97;;;;;;;11.20;95.46;102329.75;171242;28;1580;-69
2022/08/06 00:01:09;;;;;;;8.63;3.00;;;;;;;11.18;95.78;102321.94;171273;28;836;-69
2022/08/06 00:01:14;;;;;;;8.98;3.10;;;;;;;11.19;96.05;102321.03;171264;28;982;-68
2022/08/06 00:01:20;;;;;;;9.50;3.13;;;;;;;11.20;95.32;102324.53;171281;28;871;-69
2022/08/06 00:01:25;;;;;;;9.10;3.20;;;;;;;11.21;95.53;102326.25;171309;28;840;-69
2022/08/06 00:01:30;;;;;;;8.88;3.25;;;;;;;11.21;95.82;102326.25;171234;28;1843;-69
2022/08/06 00:01:36;;;;;;;8.87;3.33;;;;;;;11.21;95.59;102331.47;171267;28;1065;-69
2022/08/06 00:01:41;;;;;;;7.70;3.27;;;;;;;11.22;95.57;102330.56;171293;28;824;-69
2022/08/06 00:01:46;;;;;;;7.43;3.20;;;;;;;11.22;96.07;102327.94;171771;28;1010;-69
2022/08/06 00:01:53;;;;;;;8.33;3.10;;;;;;;11.22;95.18;102327.94;171933;28;1116;-69
2022/08/06 00:01:58;;;;;;;9.88;3.12;;;;;;;11.22;95.77;102327.94;171921;28;1215;-69
2022/08/06 00:02:04;;;;;;;9.63;2.97;;;;;;;11.23;95.89;102329.69;171980;28;847;-69
2022/08/06 00:02:10;;;;;;;10.10;2.95;;;;;;;11.21;95.59;102326.25;171945;28;1093;-69
2022/08/06 00:02:16;;;;;;;9.65;2.97;;;;;;;11.23;95.76;102328.81;171876;28;999;-69
2022/08/06 00:02:26;;;;;;;8.80;2.90;;;;;;;11.22;95.40;102325.34;171969;28;895;-68
2022/08/06 00:02:31;;;;;;;7.38;2.99;;;;;;;11.23;95.37;102334.06;171981;28;1141;-69
2022/08/06 00:02:36;;;;;;;8.13;3.08;;;;;;;11.23;95.18;102334.91;171943;28;902;-69
2022/08/06 00:02:42;;;;;;;8.70;3.20;;;;;;;11.23;95.73;102328.81;171938;28;832;-69
2022/08/06 00:02:47;;;;;;;8.45;3.10;;;;;;;11.24;95.75;102331.41;171950;28;955;-69
2022/08/06 00:02:53;;;;;;;8.30;3.10;;;;;;;11.24;95.34;102326.19;171409;28;1080;-69
2022/08/06 00:02:58;;;;;;;8.80;3.08;;;;;;;11.23;95.79;102324.47;171324;28;900;-69
2022/08/06 00:03:04;;;;;;;8.50;3.10;;;;;;;11.24;95.64;102325.31;171810;28;907;-68
2022/08/06 00:03:09;;;;;;;6.63;2.92;;;;;;;11.23;95.79;102324.47;171970;28;892;-69
2022/08/06 00:03:15;;;;;;;6.80;2.90;;;;;;;11.23;95.31;102328.81;171956;28;1022;-69
2022/08/06 00:03:20;;;;;;;6.88;2.80;;;;;;;11.22;95.58;102330.56;171976;28;918;-69
2022/08/06 00:03:26;;;;;;;7.17;2.80;;;;;;;11.22;95.49;102327.94;171255;28;1341;-69
2022/08/06 00:03:31;;;;;;;7.10;2.77;;;;;;;11.21;95.35;102326.25;171318;28;1051;-69
2022/08/06 00:03:36;;;;;;;8.20;2.90;;;;;;;11.22;95.71;102327.94;171223;28;1051;-69
2022/08/06 00:03:42;;;;;;;8.37;2.93;;;;;;;11.22;95.63;102327.13;171289;28;1069;-69
2022/08/06 00:03:49;;;;;;;8.73;3.00;;;;;;;11.20;95.51;102327.97;171739;28;1511;-69
2022/08/06 00:03:54;;;;;;;10.07;3.10;;;;;;;11.20;95.84;102327.13;171782;28;1243;-69
2022/08/06 00:04:00;;;;;;;9.87;3.20;;;;;;;11.20;95.84;102324.53;172015;28;852;-69
2022/08/06 00:04:06;;;;;;;9.82;3.22;;;;;;;11.19;95.81;102328.03;171939;28;1030;-69
2022/08/06 00:04:11;;;;;;;9.35;3.22;;;;;;;11.20;95.98;102329.75;171935;28;1042;-69
2022/08/06 00:04:17;;;;;;;9.27;3.10;;;;;;;11.19;95.56;102328.03;171840;28;963;-69
2022/08/06 00:04:23;;;;;;;9.67;3.17;;;;;;;11.21;95.97;102331.47;171989;28;1053;-69
2022/08/06 00:04:28;;;;;;;8.85;3.08;;;;;;;11.20;95.50;102334.97;171229;28;1034;-69
2022/08/06 00:04:33;;;;;;;7.77;2.83;;;;;;;11.21;95.62;102328.84;171299;28;833;-69
2022/08/06 00:04:39;;;;;;;8.67;2.70;;;;;;;11.22;95.82;102330.56;170552;28;940;-69
2022/08/06 00:04:44;;;;;;;9.38;2.80;;;;;;;11.23;95.45;102329.69;170655;29;896;-69
2022/08/06 00:04:51;;;;;;;8.80;2.80;;;;;;;11.24;96.24;102333.16;170578;29;1018;-69
2022/08/06 00:04:59;;;;;;;9.43;2.93;;;;;;;11.25;95.66;102332.28;170656;29;869;-69
2022/08/06 00:05:05;;;;;;;10.10;3.03;;;;;;;11.24;95.62;102326.19;170529;29;1585;-69
2022/08/06 00:05:10;;;;;;;9.48;3.05;;;;;;;11.26;95.50;102331.38;170584;29;971;-69
2022/08/06 00:05:16;;;;;;;9.15;3.03;;;;;;;11.25;95.96;102327.06;170664;29;856;-69
2022/08/06 00:05:21;;;;;;;9.00;3.07;;;;;;;11.24;95.49;102326.19;170580;29;1031;-69
2022/08/06 00:05:27;;;;;;;8.27;2.80;;;;;;;11.25;96.00;102327.06;170629;29;946;-69
2022/08/06 00:05:32;;;;;;;8.13;2.78;;;;;;;11.25;95.57;102330.50;170632;29;1094;-69
2022/08/06 00:05:37;;;;;;;7.50;2.80;;;;;;;11.25;95.55;102333.13;170622;29;1090;-69
2022/08/06 00:05:43;;;;;;;8.38;2.90;;;;;;;11.24;95.81;102330.53;170642;29;908;-69
2022/08/06 00:05:48;;;;;;;8.80;2.90;;;;;;;11.24;95.60;102330.53;170614;29;852;-69
2022/08/06 00:05:53;;;;;;;8.93;2.90;;;;;;;11.24;95.38;102330.53;170617;29;841;-69
2022/08/06 00:05:59;;;;;;;10.88;3.00;;;;;;;11.24;95.15;102326.19;170599;29;868;-69
2022/08/06 00:06:04;;;;;;;10.83;3.00;;;;;;;11.25;95.60;102327.06;170635;29;907;-69
2022/08/06 00:06:10;;;;;;;10.07;2.90;;;;;;;11.25;95.95;102327.88;170599;29;1062;-69
2022/08/06 00:06:15;;;;;;;9.60;2.90;;;;;;;11.26;95.74;102326.16;170968;28;1042;-69
2022/08/06 00:06:20;;;;;;;8.63;2.80;;;;;;;11.25;95.50;102330.50;171273;28;1094;-69
2022/08/06 00:06:26;;;;;;;7.53;2.80;;;;;;;11.26;95.24;102328.75;171503;28;1214;-69
2022/08/06 00:06:32;;;;;;;6.00;2.80;;;;;;;11.26;95.43;102332.22;171993;28;875;-69
2022/08/06 00:06:37;;;;;;;7.15;2.92;;;;;;;11.26;95.47;102328.75;172258;28;844;-69
2022/08/06 00:06:42;;;;;;;7.20;3.00;;;;;;;11.26;95.21;102328.75;172584;28;871;-69
2022/08/06 00:06:48;;;;;;;7.10;3.00;;;;;;;11.26;95.44;102334.00;172536;28;899;-69
2022/08/06 00:06:53;;;;;;;7.83;3.07;;;;;;;11.26;95.48;102337.44;172629;28;872;-69
2022/08/06 00:06:59;;;;;;;8.30;3.03;;;;;;;11.26;95.42;102329.59;172673;28;1034;-69
2022/08/06 00:07:04;;;;;;;8.30;3.07;;;;;;;11.27;95.16;102327.84;173127;28;828;-69
2022/08/06 00:07:10;;;;;;;7.50;3.00;;;;;;;11.26;95.45;102329.59;173260;28;941;-69
2022/08/06 00:07:15;;;;;;;7.73;3.00;;;;;;;11.26;95.09;102329.59;172536;28;1274;-68
2022/08/06 00:07:21;;;;;;;8.70;3.10;;;;;;;11.26;95.92;102329.59;172556;28;1344;-68
2022/08/06 00:07:26;;;;;;;8.38;3.13;;;;;;;11.26;95.63;102329.59;172609;28;1082;-68
2022/08/06 00:07:34;;;;;;;9.07;3.22;;;;;;;11.25;95.32;102327.88;172639;28;1105;-68
2022/08/06 00:07:39;;;;;;;9.78;3.18;;;;;;;11.26;95.15;102328.75;172624;28;1070;-69
2022/08/06 00:07:44;;;;;;;9.20;3.17;;;;;;;11.25;95.14;102327.88;172530;28;1279;-69
2022/08/06 00:07:50;;;;;;;8.82;3.05;;;;;;;11.25;95.21;102335.72;172630;28;1168;-69
2022/08/06 00:07:58;;;;;;;8.97;3.00;;;;;;;11.25;95.65;102327.88;172633;28;676;-69
2022/08/06 00:08:03;;;;;;;7.93;2.98;;;;;;;11.24;95.16;102334.00;172611;28;954;-69
2022/08/06 00:08:09;;;;;;;7.53;2.90;;;;;;;11.23;95.19;102329.69;172635;28;1116;-69
2022/08/06 00:08:14;;;;;;;9.00;3.00;;;;;;;11.25;95.44;102332.28;172547;28;887;-69
2022/08/06 00:08:20;;;;;;;8.88;3.20;;;;;;;11.24;95.74;102331.41;171863;28;864;-69
2022/08/06 00:08:25;;;;;;;8.23;3.23;;;;;;;11.25;95.39;102327.88;171948;28;954;-69
2022/08/06 00:08:31;;;;;;;10.23;3.30;;;;;;;11.25;95.51;102320.06;171890;28;1019;-69
2022/08/06 00:08:36;;;;;;;11.50;3.33;;;;;;;11.25;95.98;102327.88;171881;28;979;-69
2022/08/06 00:08:41;;;;;;;10.17;3.30;;;;;;;11.25;95.54;102330.50;170521;28;1278;-69
2022/08/06 00:08:47;;;;;;;11.35;3.25;;;;;;;11.26;95.68;102329.59;171204;28;995;-69
2022/08/06 00:08:53;;;;;;;11.73;3.20;;;;;;;11.25;95.56;102325.28;171313;28;840;-69
2022/08/06 00:08:58;;;;;;;11.60;3.10;;;;;;;11.27;95.63;102326.13;171297;28;963;-69
2022/08/06 00:09:03;;;;;;;9.50;3.00;;;;;;;11.26;95.50;102324.38;171304;28;805;-69
2022/08/06 00:09:11;;;;;;;8.65;2.90;;;;;;;11.27;95.50;102325.25;170525;28;1439;-69
2022/08/06 00:09:17;;;;;;;6.80;2.80;;;;;;;11.27;95.50;102331.34;170555;28;1588;-69
2022/08/06 00:09:22;;;;;;;6.35;2.80;;;;;;;11.26;95.30;102331.38;170627;29;983;-69
2022/08/06 00:09:30;;;;;;;6.13;2.85;;;;;;;11.25;95.47;102333.13;170628;29;1023;-69
2022/08/06 00:09:35;;;;;;;7.16;2.98;;;;;;;11.26;96.07;102332.22;170636;29;967;-69
2022/08/06 00:09:41;;;;;;;8.15;3.10;;;;;;;11.26;95.55;102329.59;170639;29;1102;-69
2022/08/06 00:09:46;;;;;;;8.33;3.07;;;;;;;11.26;96.26;102327.00;170646;28;860;-69
2022/08/06 00:09:53;;;;;;;8.40;3.05;;;;;;;11.27;95.63;102330.47;170599;29;1038;-69
2022/08/06 00:09:58;;;;;;;8.52;3.05;;;;;;;11.26;95.71;102324.38;171211;28;1053;-70
2022/08/06 00:10:04;;;;;;;7.80;3.10;;;;;;;11.27;95.55;102326.13;171271;28;928;-69
2022/08/06 00:10:10;;;;;;;7.95;3.15;;;;;;;11.27;95.41;102331.34;171787;28;1058;-69
2022/08/06 00:10:18;;;;;;;8.30;3.20;;;;;;;11.27;95.88;102330.47;171950;28;903;-69
2022/08/06 00:10:23;;;;;;;8.93;3.30;;;;;;;11.27;95.33;102333.97;171984;28;1018;-69
2022/08/06 00:10:29;;;;;;;8.85;3.20;;;;;;;11.27;95.88;102330.47;171978;28;852;-69
2022/08/06 00:10:34;;;;;;;9.40;3.20;;;;;;;11.27;95.44;102328.72;171985;28;860;-69
2022/08/06 00:10:39;;;;;;;9.07;3.10;;;;;;;11.27;96.14;102326.13;171192;28;998;-69
2022/08/06 00:10:45;;;;;;;8.90;3.10;;;;;;;11.28;95.35;102326.97;171265;28;851;-69
2022/08/06 00:10:50;;;;;;;8.50;3.07;;;;;;;11.27;95.90;102331.34;171292;28;900;-69
2022/08/06 00:10:56;;;;;;;8.40;3.10;;;;;;;11.27;95.98;102336.56;171274;28;868;-69
2022/08/06 00:11:01;;;;;;;9.63;3.07;;;;;;;11.26;95.91;102334.00;171356;28;993;-69
2022/08/06 00:11:07;;;;;;;8.52;3.00;;;;;;;11.27;95.51;102327.84;171269;28;918;-69
2022/08/06 00:11:12;;;;;;;8.77;3.00;;;;;;;11.25;95.58;102332.28;171228;28;902;-69
2022/08/06 00:11:17;;;;;;;9.15;3.10;;;;;;;11.24;95.80;102328.78;171899;28;931;-69
2022/08/06 00:11:23;;;;;;;9.60;3.10;;;;;;;11.25;95.42;102327.88;171976;28;1216;-69
2022/08/06 00:11:28;;;;;;;9.30;3.10;;;;;;;11.24;96.09;102334.00;172567;28;950;-69
2022/08/06 00:11:34;;;;;;;8.52;3.05;;;;;;;11.24;95.92;102326.19;172614;28;863;-69
2022/08/06 00:11:40;;;;;;;8.97;3.10;;;;;;;11.23;95.82;102329.69;172610;28;1028;-69
2022/08/06 00:11:46;;;;;;;7.94;2.90;;;;;;;11.23;95.91;102332.31;172547;28;1155;-69
2022/08/06 00:11:51;;;;;;;6.57;2.77;;;;;;;11.23;96.11;102334.91;172620;28;859;-69
2022/08/06 00:12:03;;;;;;;6.35;2.83;;;;;;;11.22;96.13;102333.19;172627;28;986;-69
2022/08/06 00:12:08;;;;;;;7.54;2.99;;;;;;;11.24;95.98;102335.75;172612;28;1224;-69
2022/08/06 00:12:15;;;;;;;8.73;3.05;;;;;;;11.24;96.31;102325.31;172559;28;944;-69
2022/08/06 00:12:20;;;;;;;9.45;3.15;;;;;;;11.24;95.91;102331.41;172625;28;1016;-69
2022/08/06 00:12:25;;;;;;;9.05;3.20;;;;;;;11.23;96.44;102329.69;172624;28;923;-69
2022/08/06 00:12:35;;;;;;;9.77;3.20;;;;;;;11.24;96.31;102331.41;172699;28;1025;-69
2022/08/06 00:12:40;;;;;;;8.50;3.30;;;;;;;11.25;95.98;102327.88;172541;28;954;-70
2022/08/06 00:12:46;;;;;;;9.48;3.42;;;;;;;11.25;96.11;102335.72;172616;28;1093;-69
2022/08/06 00:12:52;;;;;;;9.80;3.35;;;;;;;11.24;96.40;102330.53;172595;28;883;-69
2022/08/06 00:13:00;;;;;;;11.63;3.27;;;;;;;11.24;96.00;102331.41;172643;28;891;-68
2022/08/06 00:13:05;;;;;;;11.17;3.00;;;;;;;11.25;96.17;102327.88;172647;28;902;-69
2022/08/06 00:13:11;;;;;;;10.80;3.00;;;;;;;11.24;96.36;102326.19;171863;28;904;-68
2022/08/06 00:13:18;;;;;;;9.88;2.88;;;;;;;11.25;96.35;102333.13;171933;28;920;-69
2022/08/06 00:13:23;;;;;;;9.92;2.92;;;;;;;11.25;96.25;102327.88;171945;28;931;-70
2022/08/06 00:13:29;;;;;;;8.10;2.97;;;;;;;11.25;95.90;102333.13;171980;28;836;-70
2022/08/06 00:13:34;;;;;;;7.93;3.03;;;;;;;11.24;95.91;102326.19;171885;28;1162;-70
2022/08/06 00:13:39;;;;;;;8.90;3.00;;;;;;;11.24;95.59;102334.00;171962;28;1096;-69
2022/08/06 00:13:45;;;;;;;9.00;3.00;;;;;;;11.24;96.31;102331.41;171991;28;867;-69
2022/08/06 00:13:50;;;;;;;8.17;2.93;;;;;;;11.23;96.25;102332.31;171985;28;832;-69
2022/08/06 00:13:55;;;;;;;9.07;2.83;;;;;;;11.22;96.08;102327.94;171945;28;986;-69
2022/08/06 00:14:01;;;;;;;9.97;2.80;;;;;;;11.23;96.01;102324.47;172000;28;1073;-69
2022/08/06 00:14:07;;;;;;;10.20;2.83;;;;;;;11.22;95.92;102327.94;171857;28;1382;-69
2022/08/06 00:14:12;;;;;;;11.50;2.90;;;;;;;11.22;96.27;102330.56;171993;28;943;-68
2022/08/06 00:14:18;;;;;;;11.30;2.80;;;;;;;11.20;95.82;102329.75;171784;28;1673;-69
2022/08/06 00:14:23;;;;;;;11.27;2.93;;;;;;;11.22;96.35;102334.94;171941;28;955;-69
2022/08/06 00:14:30;;;;;;;10.85;2.95;;;;;;;11.22;96.33;102330.56;171959;28;927;-69
2022/08/06 00:14:36;;;;;;;8.43;2.87;;;;;;;11.21;96.40;102331.47;171936;28;1046;-69
2022/08/06 00:14:42;;;;;;;6.70;2.80;;;;;;;11.21;96.16;102331.47;171957;28;974;-69
2022/08/06 00:14:47;;;;;;;7.32;2.95;;;;;;;11.21;96.50;102331.47;171947;28;999;-69
2022/08/06 00:14:52;;;;;;;6.80;2.93;;;;;;;11.22;96.12;102330.56;171935;28;1029;-69
2022/08/06 00:15:00;;;;;;;6.57;2.93;;;;;;;11.22;96.42;102327.94;171218;28;987;-69
2022/08/06 00:15:07;;;;;;;8.07;3.20;;;;;;;11.23;96.68;102334.91;171295;28;1041;-69
2022/08/06 00:15:12;;;;;;;7.83;3.40;;;;;;;11.24;96.39;102335.75;171943;28;1047;-69
2022/08/06 00:15:18;;;;;;;7.60;3.40;;;;;;;11.24;96.04;102331.41;171941;28;867;-70
2022/08/06 00:15:24;;;;;;;7.55;3.40;;;;;;;11.24;96.02;102331.41;171212;28;994;-69
2022/08/06 00:15:30;;;;;;;7.60;3.40;;;;;;;11.23;96.08;102329.69;171261;28;1047;-69
2022/08/06 00:15:36;;;;;;;7.25;3.30;;;;;;;11.23;96.37;102324.47;171888;28;1065;-69
2022/08/06 00:15:41;;;;;;;7.35;3.10;;;;;;;11.24;96.65;102331.41;171189;28;1445;-69
2022/08/06 00:15:46;;;;;;;7.43;3.00;;;;;;;11.24;96.20;102331.41;171261;28;837;-69
2022/08/06 00:15:52;;;;;;;7.77;3.10;;;;;;;11.25;95.95;102332.28;171267;28;1097;-69
2022/08/06 00:15:57;;;;;;;7.80;3.03;;;;;;;11.24;95.89;102330.53;171200;28;853;-69
2022/08/06 00:16:03;;;;;;;7.80;3.00;;;;;;;11.23;96.23;102329.69;171347;28;828;-69
2022/08/06 00:16:08;;;;;;;8.27;3.00;;;;;;;11.23;95.78;102334.06;171176;28;1313;-69
2022/08/06 00:16:13;;;;;;;9.00;3.00;;;;;;;11.23;96.06;102332.31;171306;28;864;-68
2022/08/06 00:16:19;;;;;;;8.17;2.87;;;;;;;11.23;96.17;102324.47;171306;28;1054;-69
2022/08/06 00:16:25;;;;;;;8.75;2.90;;;;;;;11.22;95.91;102327.94;171236;28;840;-70
2022/08/06 00:16:30;;;;;;;8.70;2.88;;;;;;;11.22;95.88;102327.94;171317;28;1077;-69
2022/08/06 00:16:36;;;;;;;8.60;2.83;;;;;;;11.22;95.81;102327.94;171258;28;1022;-69
2022/08/06 00:16:41;;;;;;;7.47;2.80;;;;;;;11.23;96.02;102332.31;171885;28;879;-69
2022/08/06 00:16:47;;;;;;;7.77;2.80;;;;;;;11.22;95.38;102330.56;171111;28;1977;-69
2022/08/06 00:16:52;;;;;;;7.07;2.75;;;;;;;11.22;95.79;102330.56;171275;28;994;-69
2022/08/06 00:16:58;;;;;;;6.30;2.73;;;;;;;11.21;96.06;102331.47;171316;28;1010;-69
2022/08/06 00:17:04;;;;;;;5.60;2.80;;;;;;;11.21;95.56;102331.47;171326;28;931;-69
2022/08/06 00:17:09;;;;;;;5.73;2.90;;;;;;;11.21;95.83;102331.47;171299;28;856;-69
2022/08/06 00:17:15;;;;;;;6.03;2.90;;;;;;;11.20;95.64;102327.97;171867;28;724;-69
2022/08/06 00:17:21;;;;;;;6.10;2.95;;;;;;;11.21;95.97;102336.69;171161;28;955;-69
2022/08/06 00:17:27;;;;;;;6.77;2.90;;;;;;;11.20;96.15;102334.97;171120;28;777;-70
2022/08/06 00:17:32;;;;;;;7.40;2.90;;;;;;;11.20;95.97;102324.53;171772;28;2477;-70
2022/08/06 00:17:38;;;;;;;7.50;2.90;;;;;;;11.20;95.70;102330.59;171953;28;1022;-69
2022/08/06 00:17:45;;;;;;;6.97;2.90;;;;;;;11.20;96.16;102329.75;171944;28;796;-69
2022/08/06 00:17:50;;;;;;;6.80;2.80;;;;;;;11.20;96.16;102327.13;171853;28;1227;-69
2022/08/06 00:17:55;;;;;;;6.73;2.80;;;;;;;11.20;96.45;102329.75;171961;28;1026;-69
2022/08/06 00:18:01;;;;;;;6.68;2.80;;;;;;;11.20;96.39;102325.38;171899;28;1015;-69
2022/08/06 00:18:07;;;;;;;6.20;2.80;;;;;;;11.20;96.09;102327.97;171955;28;689;-69
2022/08/06 00:18:12;;;;;;;6.18;2.85;;;;;;;11.20;95.76;102333.22;171932;28;1012;-70
2022/08/06 00:18:17;;;;;;;6.37;2.90;;;;;;;11.19;96.11;102328.03;171843;28;930;-70
2022/08/06 00:18:23;;;;;;;6.68;2.90;;;;;;;11.19;95.99;102328.03;171960;28;1085;-70
2022/08/06 00:18:28;;;;;;;6.97;2.90;;;;;;;11.19;95.91;102333.25;172490;28;1077;-69
2022/08/06 00:18:33;;;;;;;7.80;2.97;;;;;;;11.19;96.41;102333.25;172661;28;1041;-69
2022/08/06 00:18:39;;;;;;;7.80;2.85;;;;;;;11.19;96.29;102333.25;172546;28;1045;-69
2022/08/06 00:18:44;;;;;;;7.77;2.87;;;;;;;11.18;96.20;102326.28;172667;28;922;-69
2022/08/06 00:18:49;;;;;;;7.93;2.90;;;;;;;11.18;96.37;102326.28;172642;28;986;-69
2022/08/06 00:18:55;;;;;;;6.65;2.88;;;;;;;11.18;96.36;102328.91;172628;28;1041;-69
2022/08/06 00:19:01;;;;;;;5.83;2.80;;;;;;;11.18;95.93;102334.13;172642;28;914;-69
2022/08/06 00:19:06;;;;;;;5.70;2.85;;;;;;;11.18;96.12;102331.53;172620;28;1041;-69
2022/08/06 00:19:11;;;;;;;5.53;2.90;;;;;;;11.18;96.38;102324.56;171863;28;915;-69
2022/08/06 00:19:17;;;;;;;5.35;3.03;;;;;;;11.17;96.39;102329.81;171883;28;1532;-69
2022/08/06 00:19:23;;;;;;;5.47;3.00;;;;;;;11.17;96.73;102329.81;171956;28;967;-69
2022/08/06 00:19:28;;;;;;;6.83;3.10;;;;;;;11.18;96.44;102331.53;172000;28;801;-70
2022/08/06 00:19:34;;;;;;;7.18;3.20;;;;;;;11.17;96.06;102329.81;171979;28;903;-69
2022/08/06 00:19:39;;;;;;;8.13;3.20;;;;;;;11.17;96.51;102332.44;171980;28;907;-70
2022/08/06 00:19:44;;;;;;;9.07;3.10;;;;;;;11.18;96.22;102326.28;171959;28;1098;-70
2022/08/06 00:19:51;;;;;;;9.77;3.15;;;;;;;11.17;96.00;102330.69;172491;28;911;-69
2022/08/06 00:19:56;;;;;;;10.20;3.10;;;;;;;11.17;96.10;102330.69;173265;28;966;-70
2022/08/06 00:20:02;;;;;;;9.77;2.93;;;;;;;11.17;96.15;102335.03;172721;28;942;-69
2022/08/06 00:20:08;;;;;;;10.15;3.00;;;;;;;11.17;96.50;102330.69;172619;28;898;-70
2022/08/06 00:20:15;;;;;;;9.00;3.04;;;;;;;11.18;96.54;102331.53;172705;28;958;-69
2022/08/06 00:20:21;;;;;;;8.16;3.00;;;;;;;11.17;95.96;102329.81;173183;28;1123;-70
2022/08/06 00:20:26;;;;;;;7.37;3.00;;;;;;;11.16;96.12;102328.94;173089;28;911;-70
2022/08/06 00:20:32;;;;;;;6.78;3.05;;;;;;;11.17;95.96;102325.47;172588;28;983;-70
2022/08/06 00:20:37;;;;;;;6.57;2.90;;;;;;;11.16;96.04;102325.50;172582;28;837;-69
2022/08/06 00:20:43;;;;;;;7.10;2.83;;;;;;;11.16;96.32;102328.09;172604;28;911;-69
2022/08/06 00:20:48;;;;;;;7.40;2.83;;;;;;;11.16;95.95;102333.31;172625;28;895;-69
2022/08/06 00:20:53;;;;;;;7.80;2.80;;;;;;;11.16;95.86;102322.88;172615;28;1092;-69
2022/08/06 00:20:59;;;;;;;7.95;2.88;;;;;;;11.16;96.51;102328.09;172553;28;963;-70
2022/08/06 00:21:04;;;;;;;8.17;3.00;;;;;;;11.16;95.92;102328.94;172657;28;883;-69
2022/08/06 00:21:10;;;;;;;7.65;3.00;;;;;;;11.16;96.26;102328.09;172645;28;1033;-69
2022/08/06 00:21:15;;;;;;;7.83;3.03;;;;;;;11.15;96.17;102332.44;172997;28;1022;-69
2022/08/06 00:21:21;;;;;;;7.78;3.00;;;;;;;11.16;96.08;102328.09;173316;28;931;-69
2022/08/06 00:21:26;;;;;;;8.10;3.07;;;;;;;11.16;95.60;102333.31;173301;28;930;-69
2022/08/06 00:21:32;;;;;;;8.07;3.03;;;;;;;11.16;95.97;102333.31;173288;28;1352;-69
2022/08/06 00:21:37;;;;;;;7.88;3.00;;;;;;;11.16;95.34;102333.31;173296;28;887;-69
2022/08/06 00:21:43;;;;;;;7.60;3.13;;;;;;;11.15;95.78;102332.44;173298;28;910;-69
2022/08/06 00:21:49;;;;;;;7.57;3.20;;;;;;;11.15;96.15;102336.84;173279;28;1030;-69
2022/08/06 00:21:55;;;;;;;7.08;3.20;;;;;;;11.15;95.84;102336.84;173283;28;1041;-69
2022/08/06 00:22:01;;;;;;;7.70;3.20;;;;;;;11.15;96.17;102329.00;173281;28;996;-69
2022/08/06 00:22:06;;;;;;;8.73;3.20;;;;;;;11.15;95.71;102331.63;173296;28;843;-69
2022/08/06 00:22:11;;;;;;;9.07;3.13;;;;;;;11.15;96.20;102331.63;172538;28;1326;-69
2022/08/06 00:22:17;;;;;;;8.67;3.00;;;;;;;11.15;96.25;102329.00;172607;28;954;-69
2022/08/06 00:22:22;;;;;;;8.67;3.00;;;;;;;11.15;96.31;102331.63;171952;28;1025;-69
2022/08/06 00:22:28;;;;;;;8.88;2.95;;;;;;;11.13;96.05;102329.03;171184;28;1439;-68
2022/08/06 00:22:33;;;;;;;8.23;2.93;;;;;;;11.13;95.68;102329.03;171237;28;1022;-68
2022/08/06 00:22:38;;;;;;;8.02;2.90;;;;;;;11.13;96.57;102329.03;171205;28;927;-69
2022/08/06 00:22:44;;;;;;;8.13;3.10;;;;;;;11.13;96.21;102333.38;171219;28;1022;-68
2022/08/06 00:22:49;;;;;;;8.00;3.10;;;;;;;11.13;96.26;102330.78;171266;28;844;-69
2022/08/06 00:22:55;;;;;;;7.47;3.00;;;;;;;11.13;96.37;102328.16;170555;29;1317;-69
2022/08/06 00:23:00;;;;;;;7.60;3.07;;;;;;;11.13;96.52;102329.03;171299;28;827;-69
2022/08/06 00:23:06;;;;;;;7.05;3.00;;;;;;;11.13;96.45;102333.38;171343;28;843;-69
2022/08/06 00:23:11;;;;;;;7.27;2.93;;;;;;;11.13;96.37;102333.38;171293;28;922;-69
2022/08/06 00:23:17;;;;;;;7.45;2.92;;;;;;;11.12;96.38;102332.50;171297;28;836;-69
2022/08/06 00:23:23;;;;;;;7.63;3.00;;;;;;;11.12;96.50;102327.28;171288;28;923;-69
2022/08/06 00:23:28;;;;;;;8.20;3.17;;;;;;;11.12;95.98;102337.72;171311;28;1097;-69
2022/08/06 00:23:33;;;;;;;8.13;3.20;;;;;;;11.12;96.09;102332.50;171324;28;1049;-70
2022/08/06 00:23:39;;;;;;;8.27;3.30;;;;;;;11.12;95.92;102336.91;171266;28;1025;-69
2022/08/06 00:23:44;;;;;;;8.20;3.30;;;;;;;11.12;95.92;102332.50;171249;28;1026;-68
2022/08/06 00:23:50;;;;;;;9.13;3.40;;;;;;;11.12;95.87;102329.06;170534;28;1640;-68
2022/08/06 00:23:55;;;;;;;9.33;3.33;;;;;;;11.12;95.99;102331.66;170544;28;916;-68
2022/08/06 00:24:00;;;;;;;9.45;3.30;;;;;;;11.11;95.79;102330.78;170621;29;979;-68
2022/08/06 00:24:06;;;;;;;10.50;3.40;;;;;;;11.11;96.08;102336.03;170660;29;988;-69
2022/08/06 00:24:12;;;;;;;11.00;3.30;;;;;;;11.11;96.35;102325.56;171250;28;896;-68
2022/08/06 00:24:19;;;;;;;9.77;3.30;;;;;;;11.11;96.41;102329.94;171277;28;923;-69
2022/08/06 00:24:24;;;;;;;10.07;3.37;;;;;;;11.10;96.51;102333.44;171440;28;797;-70
2022/08/06 00:24:29;;;;;;;9.05;3.17;;;;;;;11.11;96.16;102335.16;171892;28;928;-69
2022/08/06 00:24:35;;;;;;;8.03;3.10;;;;;;;11.11;96.40;102329.94;172000;28;832;-69
2022/08/06 00:24:40;;;;;;;7.50;3.20;;;;;;;11.09;96.68;102332.59;171933;28;1184;-69
2022/08/06 00:24:45;;;;;;;7.57;3.30;;;;;;;11.09;96.53;102327.38;171895;28;911;-69
2022/08/06 00:24:51;;;;;;;7.50;3.20;;;;;;;11.10;96.12;102330.81;171839;28;899;-69
2022/08/06 00:24:56;;;;;;;8.38;3.30;;;;;;;11.11;96.21;102329.94;171925;28;1094;-69
2022/08/06 00:25:02;;;;;;;9.20;3.37;;;;;;;11.10;96.39;102328.22;171952;28;1042;-69
2022/08/06 00:25:10;;;;;;;8.85;3.25;;;;;;;11.08;96.00;102331.72;171967;28;982;-69
2022/08/06 00:25:15;;;;;;;8.97;3.20;;;;;;;11.09;96.43;102335.22;171958;28;947;-69
2022/08/06 00:25:21;;;;;;;9.10;3.27;;;;;;;11.09;96.03;102327.38;171932;28;836;-69
2022/08/06 00:25:26;;;;;;;8.40;3.40;;;;;;;11.08;96.52;102336.94;171953;28;852;-69
2022/08/06 00:25:32;;;;;;;8.03;3.50;;;;;;;11.08;96.45;102331.72;172005;28;855;-69
2022/08/06 00:25:37;;;;;;;9.25;3.50;;;;;;;11.08;96.25;102331.72;171857;28;1003;-69
2022/08/06 00:25:45;;;;;;;9.50;3.50;;;;;;;11.08;96.20;102331.72;171968;28;958;-69
2022/08/06 00:25:51;;;;;;;9.90;3.43;;;;;;;11.09;96.37;102335.22;172459;28;2220;-69
2022/08/06 00:25:56;;;;;;;9.25;3.28;;;;;;;11.08;96.10;102334.34;171836;28;1019;-69
2022/08/06 00:26:02;;;;;;;11.00;3.30;;;;;;;11.07;96.20;102332.63;171917;28;971;-69
2022/08/06 00:26:07;;;;;;;10.77;3.28;;;;;;;11.08;96.80;102333.47;171959;28;1044;-69
2022/08/06 00:26:13;;;;;;;10.90;3.30;;;;;;;11.07;95.92;102332.63;171158;28;1286;-69
2022/08/06 00:26:18;;;;;;;11.13;3.30;;;;;;;11.07;96.17;102334.38;171269;28;1035;-69
2022/08/06 00:26:24;;;;;;;10.90;3.28;;;;;;;11.08;96.18;102336.09;171323;28;1096;-69
2022/08/06 00:26:29;;;;;;;10.85;3.30;;;;;;;11.07;96.01;102335.25;171325;28;938;-69
2022/08/06 00:26:34;;;;;;;10.40;3.40;;;;;;;11.07;96.75;102343.06;171316;28;930;-69
2022/08/06 00:26:40;;;;;;;10.70;3.40;;;;;;;11.06;96.83;102333.50;171241;28;927;-69
2022/08/06 00:26:46;;;;;;;10.23;3.45;;;;;;;11.07;96.54;102331.75;171229;28;1085;-69
2022/08/06 00:26:51;;;;;;;10.77;3.55;;;;;;;11.07;96.84;102331.75;171227;28;981;-69
2022/08/06 00:26:57;;;;;;;11.33;3.60;;;;;;;11.07;96.61;102334.38;171212;28;1022;-69
2022/08/06 00:27:02;;;;;;;10.77;3.53;;;;;;;11.06;96.17;102343.94;171313;28;1025;-69
2022/08/06 00:27:08;;;;;;;10.23;3.50;;;;;;;11.06;96.59;102338.72;171328;28;851;-69
2022/08/06 00:27:13;;;;;;;10.07;3.47;;;;;;;11.06;96.27;102338.72;170529;29;978;-69